Time;durP1;ratioP1;P1;durP2;ratioP2;P2;SDS_P1;SDS_P2;PMS_P1;PMS_P2;Temp;Humidity;BMP_temperature;BMP_pressure;BME280_temperature;BME280_humidity;BME280_pressure;Samples;Min_cycle;Max_cycle;Signal;HPM_P1;HPM_P2
2022/07/16 00:12:06;;;;;;;;;;;;;;;;;;5022955;28;19948;-55
2022/07/16 00:14:32;;;;;;;;;;;;;;;;;;5022468;28;19933;-55
2022/07/16 00:16:59;;;;;;;;;;;;;;;;;;5021960;28;19914;-54
2022/07/16 00:19:25;;;;;;;;;;;;;;;;;;5021808;28;20443;-54
2022/07/16 00:21:51;;;;;;;;;;;;;;;;;;5022038;28;19909;-55
2022/07/16 00:24:17;;;;;;;;;;;;;;;;;;5021349;28;19940;-55
2022/07/16 00:26:43;;;;;;;;;;;;;;;;;;5021525;28;19913;-54
2022/07/16 00:29:08;;;;;;;;;;;;;;;;;;5022044;28;19948;-53
2022/07/16 00:31:35;;;;;;;;;;;;;;;;;;5021981;28;19988;-54
2022/07/16 00:34:01;;;;;;;;;;;;;;;;;;5021308;28;19909;-54
2022/07/16 00:36:27;;;;;;;;;;;;;;;;;;5022149;28;20452;-55
2022/07/16 00:38:52;;;;;;;;;;;;;;;;;;5013708;28;19914;-56
2022/07/16 00:41:18;;;;;;;;;;;;;;;;;;5002432;28;19979;-56
2022/07/16 00:43:44;;;;;;;;;;;;;;;;;;5001626;28;19918;-56
2022/07/16 00:46:10;;;;;;;;;;;;;;;;;;5001906;28;19992;-56
2022/07/16 00:48:36;;;;;;;;;;;;;;;;;;5001310;28;19909;-57
2022/07/16 00:51:02;;;;;;;;;;;;;;;;;;5002137;28;20390;-56
2022/07/16 00:53:28;;;;;;;;;;;;;;;;;;5012294;28;19914;-56
2022/07/16 00:55:54;;;;;;;;;;;;;;;;;;5022302;28;20003;-56
2022/07/16 00:58:20;;;;;;;;;;;;;;;;;;5021646;28;20391;-56
2022/07/16 01:00:46;;;;;;;;;;;;;;;;;;5021388;28;19914;-56
2022/07/16 01:03:13;;;;;;;;;;;;;;;;;;5021431;28;19916;-56
2022/07/16 01:05:39;;;;;;;;;;;;;;;;;;5021332;28;20437;-56
2022/07/16 01:08:05;;;;;;;;;;;;;;;;;;5021391;28;20008;-56
2022/07/16 01:10:31;;;;;;;;;;;;;;;;;;5021104;28;19925;-56
2022/07/16 01:12:57;;;;;;;;;;;;;;;;;;5009065;28;19921;-56
2022/07/16 01:15:23;;;;;;;;;;;;;;;;;;5009007;28;19917;-56
2022/07/16 01:17:49;;;;;;;;;;;;;;;;;;5009253;28;20023;-56
2022/07/16 01:20:14;;;;;;;;;;;;;;;;;;5008617;28;19917;-56
2022/07/16 01:22:40;;;;;;;;;;;;;;;;;;5008544;28;19953;-56
2022/07/16 01:25:06;;;;;;;;;;;;;;;;;;5008904;28;19910;-56
2022/07/16 01:27:32;;;;;;;;;;;;;;;;;;5009322;28;19913;-56
2022/07/16 01:29:58;;;;;;;;;;;;;;;;;;5008365;28;19920;-56
2022/07/16 01:32:24;;;;;;;;;;;;;;;;;;5008813;28;19913;-56
2022/07/16 01:34:51;;;;;;;;;;;;;;;;;;5008484;28;19913;-56
2022/07/16 01:37:17;;;;;;;;;;;;;;;;;;5009088;28;20051;-56
2022/07/16 01:39:43;;;;;;;;;;;;;;;;;;5007518;28;19999;-56
2022/07/16 01:42:10;;;;;;;;;;;;;;;;;;5007763;28;19909;-56
2022/07/16 01:44:36;;;;;;;;;;;;;;;;;;5008507;28;19910;-56
2022/07/16 01:47:02;;;;;;;;;;;;;;;;;;5008383;28;19916;-56
2022/07/16 01:49:28;;;;;;;;;;;;;;;;;;5007103;28;19913;-56
2022/07/16 01:51:54;;;;;;;;;;;;;;;;;;5007830;28;20000;-56
2022/07/16 01:54:20;;;;;;;;;;;;;;;;;;5008317;28;19936;-56
2022/07/16 01:56:46;;;;;;;;;;;;;;;;;;5007948;28;20253;-56
2022/07/16 01:59:12;;;;;;;;;;;;;;;;;;5007424;28;19920;-57
2022/07/16 02:01:37;;;;;;;;;;;;;;;;;;5007065;28;19917;-57
2022/07/16 02:04:03;;;;;;;;;;;;;;;;;;5004241;28;19916;-57
2022/07/16 02:06:29;;;;;;;;;;;;;;;;;;5006610;28;19913;-57
2022/07/16 02:08:55;;;;;;;;;;;;;;;;;;4994079;28;19918;-57
2022/07/16 02:11:21;;;;;;;;;;;;;;;;;;4986671;28;19945;-56
2022/07/16 02:13:47;;;;;;;;;;;;;;;;;;4987221;28;19946;-57
2022/07/16 02:16:13;;;;;;;;;;;;;;;;;;4987570;28;20000;-56
2022/07/16 02:18:39;;;;;;;;;;;;;;;;;;4986966;28;19906;-57
2022/07/16 02:21:06;;;;;;;;;;;;;;;;;;4987405;28;19972;-56
2022/07/16 02:23:32;;;;;;;;;;;;;;;;;;4986952;28;20305;-57
2022/07/16 02:25:58;;;;;;;;;;;;;;;;;;4987081;28;19936;-57
2022/07/16 02:28:23;;;;;;;;;;;;;;;;;;4987410;28;20326;-56
2022/07/16 02:30:49;;;;;;;;;;;;;;;;;;4987115;28;19968;-57
2022/07/16 02:33:16;;;;;;;;;;;;;;;;;;4987390;28;19913;-57
2022/07/16 02:35:42;;;;;;;;;;;;;;;;;;4986665;28;20434;-56
2022/07/16 02:38:08;;;;;;;;;;;;;;;;;;4987061;28;19918;-56
2022/07/16 02:40:35;;;;;;;;;;;;;;;;;;4986282;28;19957;-57
2022/07/16 02:43:01;;;;;;;;;;;;;;;;;;4987003;28;19914;-56
2022/07/16 02:45:27;;;;;;;;;;;;;;;;;;4987144;28;19910;-56
2022/07/16 02:47:53;;;;;;;;;;;;;;;;;;4986594;28;19909;-56
2022/07/16 02:50:18;;;;;;;;;;;;;;;;;;4986841;28;19913;-56
2022/07/16 02:52:44;;;;;;;;;;;;;;;;;;4986545;28;19917;-56
2022/07/16 02:55:10;;;;;;;;;;;;;;;;;;4987003;28;19913;-56
2022/07/16 02:57:36;;;;;;;;;;;;;;;;;;4985883;28;19984;-57
2022/07/16 03:00:02;;;;;;;;;;;;;;;;;;4986538;28;19975;-56
2022/07/16 03:02:28;;;;;;;;;;;;;;;;;;4985698;28;19918;-57
2022/07/16 03:04:54;;;;;;;;;;;;;;;;;;4985477;28;20446;-56
2022/07/16 03:07:20;;;;;;;;;;;;;;;;;;4985714;28;20067;-57
2022/07/16 03:09:45;;;;;;;;;;;;;;;;;;4985549;28;19914;-56
2022/07/16 03:12:11;;;;;;;;;;;;;;;;;;4985829;28;19920;-57
2022/07/16 03:14:37;;;;;;;;;;;;;;;;;;4985969;28;19972;-57
2022/07/16 03:17:04;;;;;;;;;;;;;;;;;;4986873;28;19910;-56
2022/07/16 03:19:31;;;;;;;;;;;;;;;;;;4986755;28;19921;-57
2022/07/16 03:21:57;;;;;;;;;;;;;;;;;;4986001;28;19913;-57
2022/07/16 03:24:23;;;;;;;;;;;;;;;;;;4986775;28;20411;-57
2022/07/16 03:26:49;;;;;;;;;;;;;;;;;;4985829;28;20449;-56
2022/07/16 03:29:16;;;;;;;;;;;;;;;;;;4986480;28;19910;-56
2022/07/16 03:31:41;;;;;;;;;;;;;;;;;;4985987;28;19937;-56
2022/07/16 03:34:07;;;;;;;;;;;;;;;;;;4985955;28;19914;-57
2022/07/16 03:36:33;;;;;;;;;;;;;;;;;;4986484;28;19909;-56
2022/07/16 03:39:05;;;;;;;;;;;;;;;;;;4986783;28;20361;-56
2022/07/16 03:41:31;;;;;;;;;;;;;;;;;;4986319;28;19921;-56
2022/07/16 03:43:57;;;;;;;;;;;;;;;;;;4984856;28;19965;-56
2022/07/16 03:46:23;;;;;;;;;;;;;;;;;;4985886;28;20379;-56
2022/07/16 03:48:50;;;;;;;;;;;;;;;;;;4985841;28;19941;-56
2022/07/16 03:51:16;;;;;;;;;;;;;;;;;;4986224;28;20005;-55
2022/07/16 03:53:42;;;;;;;;;;;;;;;;;;4985815;28;19910;-56
2022/07/16 03:56:09;;;;;;;;;;;;;;;;;;4985744;28;19918;-56
2022/07/16 03:58:35;;;;;;;;;;;;;;;;;;4984980;28;19914;-56
2022/07/16 04:01:01;;;;;;;;;;;;;;;;;;4989666;28;19917;-57
2022/07/16 04:03:27;;;;;;;;;;;;;;;;;;5004823;28;19916;-56
2022/07/16 04:05:53;;;;;;;;;;;;;;;;;;4998303;28;20386;-56
2022/07/16 04:08:19;;;;;;;;;;;;;;;;;;4985026;28;20005;-57
2022/07/16 04:10:45;;;;;;;;;;;;;;;;;;4985493;28;20358;-57
2022/07/16 04:13:11;;;;;;;;;;;;;;;;;;4984695;28;20392;-56
2022/07/16 04:15:37;;;;;;;;;;;;;;;;;;4985238;28;19914;-55
2022/07/16 04:18:02;;;;;;;;;;;;;;;;;;4985434;28;19972;-54
2022/07/16 04:20:28;;;;;;;;;;;;;;;;;;4984589;28;20009;-55
2022/07/16 04:22:55;;;;;;;;;;;;;;;;;;4985423;28;20005;-55
2022/07/16 04:25:21;;;;;;;;;;;;;;;;;;4985694;28;19910;-56
2022/07/16 04:27:47;;;;;;;;;;;;;;;;;;4985998;28;20513;-55
2022/07/16 04:30:13;;;;;;;;;;;;;;;;;;4985934;28;19906;-54
2022/07/16 04:32:39;;;;;;;;;;;;;;;;;;4985071;28;19914;-56
2022/07/16 04:35:05;;;;;;;;;;;;;;;;;;4985420;28;19940;-55
2022/07/16 04:37:31;;;;;;;;;;;;;;;;;;4985688;28;19916;-55
2022/07/16 04:39:57;;;;;;;;;;;;;;;;;;4985157;28;19943;-54
2022/07/16 04:42:22;;;;;;;;;;;;;;;;;;4985190;28;19949;-56
2022/07/16 04:44:48;;;;;;;;;;;;;;;;;;4984112;28;20378;-56
2022/07/16 04:47:14;;;;;;;;;;;;;;;;;;4987325;28;19910;-56
2022/07/16 04:49:40;;;;;;;;;;;;;;;;;;4988817;28;19937;-55
2022/07/16 04:52:06;;;;;;;;;;;;;;;;;;4989430;28;20061;-54
2022/07/16 04:54:32;;;;;;;;;;;;;;;;;;4988998;28;19917;-54
2022/07/16 04:56:58;;;;;;;;;;;;;;;;;;4988503;28;20233;-54
2022/07/16 04:59:24;;;;;;;;;;;;;;;;;;4987907;28;19943;-55
2022/07/16 05:01:49;;;;;;;;;;;;;;;;;;4988185;28;19914;-56
2022/07/16 05:04:15;;;;;;;;;;;;;;;;;;4988868;28;20618;-55
2022/07/16 05:06:41;;;;;;;;;;;;;;;;;;4987716;28;19914;-56
2022/07/16 05:09:08;;;;;;;;;;;;;;;;;;4988051;28;19910;-55
2022/07/16 05:11:34;;;;;;;;;;;;;;;;;;4987851;28;19918;-55
2022/07/16 05:14:01;;;;;;;;;;;;;;;;;;4986330;28;19917;-56
2022/07/16 05:16:27;;;;;;;;;;;;;;;;;;4988298;28;19920;-55
2022/07/16 05:18:53;;;;;;;;;;;;;;;;;;4988864;28;19906;-54
2022/07/16 05:21:19;;;;;;;;;;;;;;;;;;4988259;28;20309;-56
2022/07/16 05:23:45;;;;;;;;;;;;;;;;;;4989008;28;19910;-56
2022/07/16 05:26:11;;;;;;;;;;;;;;;;;;4988206;28;20149;-56
2022/07/16 05:28:37;;;;;;;;;;;;;;;;;;4988317;28;19909;-55
2022/07/16 05:31:03;;;;;;;;;;;;;;;;;;4988111;28;19917;-55
2022/07/16 05:33:29;;;;;;;;;;;;;;;;;;4988112;28;19909;-55
2022/07/16 05:35:55;;;;;;;;;;;;;;;;;;4986948;28;19917;-56
2022/07/16 05:38:21;;;;;;;;;;;;;;;;;;4988580;28;20415;-56
2022/07/16 05:40:47;;;;;;;;;;;;;;;;;;4988617;28;19918;-54
2022/07/16 05:43:13;;;;;;;;;;;;;;;;;;4988075;28;20441;-55
2022/07/16 05:45:39;;;;;;;;;;;;;;;;;;4986263;28;19928;-55
2022/07/16 05:48:05;;;;;;;;;;;;;;;;;;4988282;28;20367;-55
2022/07/16 05:50:30;;;;;;;;;;;;;;;;;;4988036;28;19910;-54
2022/07/16 05:52:56;;;;;;;;;;;;;;;;;;4987811;28;19973;-54
2022/07/16 05:55:22;;;;;;;;;;;;;;;;;;4990911;28;20333;-56
2022/07/16 05:57:48;;;;;;;;;;;;;;;;;;5017722;28;19953;-55
2022/07/16 06:00:14;;;;;;;;;;;;;;;;;;5005834;28;19913;-56
2022/07/16 06:02:40;;;;;;;;;;;;;;;;;;4998638;28;19925;-55
2022/07/16 06:05:06;;;;;;;;;;;;;;;;;;4994790;28;19914;-56
2022/07/16 06:07:32;;;;;;;;;;;;;;;;;;4997922;28;19917;-53
2022/07/16 06:09:58;;;;;;;;;;;;;;;;;;5008162;28;19972;-55
2022/07/16 06:12:24;;;;;;;;;;;;;;;;;;5008187;28;19971;-51
2022/07/16 06:14:50;;;;;;;;;;;;;;;;;;4997636;28;19921;-53
2022/07/16 06:17:16;;;;;;;;;;;;;;;;;;5002598;28;19952;-53
2022/07/16 06:19:42;;;;;;;;;;;;;;;;;;5006450;28;19940;-53
2022/07/16 06:22:08;;;;;;;;;;;;;;;;;;5008708;28;19920;-52
2022/07/16 06:24:34;;;;;;;;;;;;;;;;;;5008348;28;19909;-51
2022/07/16 06:27:00;;;;;;;;;;;;;;;;;;5004435;28;19913;-51
2022/07/16 06:29:26;;;;;;;;;;;;;;;;;;4988055;28;19913;-52
2022/07/16 06:31:52;;;;;;;;;;;;;;;;;;4995023;28;20303;-49
2022/07/16 06:34:18;;;;;;;;;;;;;;;;;;5005990;28;19983;-53
2022/07/16 06:36:44;;;;;;;;;;;;;;;;;;5007885;28;19909;-53
2022/07/16 06:39:10;;;;;;;;;;;;;;;;;;5008297;28;19910;-53
2022/07/16 06:41:36;;;;;;;;;;;;;;;;;;4997714;28;20000;-51
2022/07/16 06:44:02;;;;;;;;;;;;;;;;;;5003410;28;19917;-52
2022/07/16 06:46:28;;;;;;;;;;;;;;;;;;5007665;28;20573;-52
2022/07/16 06:48:54;;;;;;;;;;;;;;;;;;5007152;28;19987;-51
2022/07/16 06:51:20;;;;;;;;;;;;;;;;;;5003177;28;19928;-52
2022/07/16 06:53:46;;;;;;;;;;;;;;;;;;5000476;28;19914;-53
2022/07/16 06:56:12;;;;;;;;;;;;;;;;;;4992880;28;19952;-53
2022/07/16 06:58:38;;;;;;;;;;;;;;;;;;5000682;28;19917;-51
2022/07/16 07:01:04;;;;;;;;;;;;;;;;;;4987539;28;19957;-52
2022/07/16 07:03:30;;;;;;;;;;;;;;;;;;5000700;28;19948;-49
2022/07/16 07:05:56;;;;;;;;;;;;;;;;;;4989843;28;19913;-52
2022/07/16 07:08:22;;;;;;;;;;;;;;;;;;5006491;28;20336;-53
2022/07/16 07:10:48;;;;;;;;;;;;;;;;;;5003376;28;19925;-54
2022/07/16 07:13:14;;;;;;;;;;;;;;;;;;4989536;28;19921;-51
2022/07/16 07:15:42;;;;;;;;;;;;;;;;;;4997619;28;19922;-51
2022/07/16 07:18:08;;;;;;;;;;;;;;;;;;4997910;28;20539;-49
2022/07/16 07:20:34;;;;;;;;;;;;;;;;;;4989664;28;19920;-53
2022/07/16 07:23:00;;;;;;;;;;;;;;;;;;5008826;28;19976;-52
2022/07/16 07:25:26;;;;;;;;;;;;;;;;;;5006281;28;19910;-52
2022/07/16 07:27:52;;;;;;;;;;;;;;;;;;4993199;28;19924;-51
2022/07/16 07:30:18;;;;;;;;;;;;;;;;;;5004298;28;19953;-49
2022/07/16 07:32:44;;;;;;;;;;;;;;;;;;5011490;28;20335;-51
2022/07/16 07:35:09;;;;;;;;;;;;;;;;;;5018574;28;19915;-50
2022/07/16 07:37:35;;;;;;;;;;;;;;;;;;5004179;28;19914;-52
2022/07/16 07:40:02;;;;;;;;;;;;;;;;;;4987618;28;19921;-51
2022/07/16 07:42:29;;;;;;;;;;;;;;;;;;4987802;28;19918;-49
2022/07/16 07:44:55;;;;;;;;;;;;;;;;;;4985564;28;20413;-51
2022/07/16 07:47:21;;;;;;;;;;;;;;;;;;4987132;28;19910;-52
2022/07/16 07:49:47;;;;;;;;;;;;;;;;;;4993484;28;19921;-51
2022/07/16 07:52:13;;;;;;;;;;;;;;;;;;4999844;28;19918;-52
2022/07/16 07:54:39;;;;;;;;;;;;;;;;;;5000918;28;20271;-52
2022/07/16 07:57:05;;;;;;;;;;;;;;;;;;4996464;28;19909;-52
2022/07/16 07:59:31;;;;;;;;;;;;;;;;;;5004027;28;19914;-50
2022/07/16 08:01:57;;;;;;;;;;;;;;;;;;5000637;28;19918;-53
2022/07/16 08:04:23;;;;;;;;;;;;;;;;;;5001049;28;19917;-52
2022/07/16 08:06:49;;;;;;;;;;;;;;;;;;4995756;28;19940;-53
2022/07/16 08:09:15;;;;;;;;;;;;;;;;;;5007423;28;19916;-50
2022/07/16 08:11:41;;;;;;;;;;;;;;;;;;5007191;28;19917;-53
2022/07/16 08:14:07;;;;;;;;;;;;;;;;;;5007567;28;19919;-52
2022/07/16 08:16:33;;;;;;;;;;;;;;;;;;5007694;28;19955;-54
2022/07/16 08:18:59;;;;;;;;;;;;;;;;;;5004860;28;19914;-51
2022/07/16 08:21:25;;;;;;;;;;;;;;;;;;4997559;28;20047;-53
2022/07/16 08:26:36;;;;;;;;;;;;;;;;;;5011168;28;19924;-52
2022/07/16 08:29:02;;;;;;;;;;;;;;;;;;5011659;28;19963;-52
2022/07/16 08:31:28;;;;;;;;;;;;;;;;;;4996932;28;19921;-53
2022/07/16 08:33:54;;;;;;;;;;;;;;;;;;5015298;28;19920;-51
2022/07/16 08:36:20;;;;;;;;;;;;;;;;;;4992024;28;19909;-52
2022/07/16 08:38:46;;;;;;;;;;;;;;;;;;4989346;28;19918;-52
2022/07/16 08:41:13;;;;;;;;;;;;;;;;;;5004662;28;19924;-53
2022/07/16 08:43:39;;;;;;;;;;;;;;;;;;5019259;28;19913;-53
2022/07/16 08:46:05;;;;;;;;;;;;;;;;;;5015236;28;20287;-52
2022/07/16 08:48:31;;;;;;;;;;;;;;;;;;5010561;28;19910;-53
2022/07/16 08:50:58;;;;;;;;;;;;;;;;;;4990904;28;19920;-53
2022/07/16 08:53:24;;;;;;;;;;;;;;;;;;4990059;28;19925;-54
2022/07/16 08:55:52;;;;;;;;;;;;;;;;;;5001478;28;20004;-52
2022/07/16 08:58:18;;;;;;;;;;;;;;;;;;5010550;28;20728;-52
2022/07/16 09:00:45;;;;;;;;;;;;;;;;;;5010013;28;20020;-53
2022/07/16 09:03:11;;;;;;;;;;;;;;;;;;5010770;28;20001;-53
2022/07/16 09:05:37;;;;;;;;;;;;;;;;;;4999757;28;20073;-54
2022/07/16 09:08:04;;;;;;;;;;;;;;;;;;4990636;28;19917;-56
2022/07/16 09:10:30;;;;;;;;;;;;;;;;;;5008826;28;19925;-54
2022/07/16 09:12:56;;;;;;;;;;;;;;;;;;5010583;28;19910;-52
2022/07/16 09:15:21;;;;;;;;;;;;;;;;;;5010404;28;20366;-53
2022/07/16 09:17:48;;;;;;;;;;;;;;;;;;5010349;28;19913;-51
2022/07/16 09:20:14;;;;;;;;;;;;;;;;;;5010370;28;19917;-53
2022/07/16 09:22:40;;;;;;;;;;;;;;;;;;5009927;28;19921;-53
2022/07/16 09:25:06;;;;;;;;;;;;;;;;;;5010626;28;19913;-53
2022/07/16 09:27:36;;;;;;;;;;;;;;;;;;5010472;28;19984;-55
2022/07/16 09:30:02;;;;;;;;;;;;;;;;;;5009818;28;20376;-54
2022/07/16 09:32:28;;;;;;;;;;;;;;;;;;5009872;28;19917;-49
2022/07/16 09:34:54;;;;;;;;;;;;;;;;;;5009288;28;19921;-52
2022/07/16 09:37:20;;;;;;;;;;;;;;;;;;5004980;28;19913;-53
2022/07/16 09:39:47;;;;;;;;;;;;;;;;;;5005116;28;19914;-54
2022/07/16 09:42:12;;;;;;;;;;;;;;;;;;4990492;28;19996;-53
2022/07/16 09:44:38;;;;;;;;;;;;;;;;;;4996622;28;20817;-53
2022/07/16 09:47:05;;;;;;;;;;;;;;;;;;5010116;28;19913;-53
2022/07/16 09:49:31;;;;;;;;;;;;;;;;;;5010681;28;19910;-53
2022/07/16 09:51:57;;;;;;;;;;;;;;;;;;5009682;28;20281;-52
2022/07/16 09:54:22;;;;;;;;;;;;;;;;;;5009913;28;19914;-54
2022/07/16 09:56:48;;;;;;;;;;;;;;;;;;5006555;28;19918;-53
2022/07/16 09:59:14;;;;;;;;;;;;;;;;;;5009728;28;19913;-54
2022/07/16 10:01:40;;;;;;;;;;;;;;;;;;5009390;28;19920;-53
2022/07/16 10:04:06;;;;;;;;;;;;;;;;;;5009840;28;19917;-52
2022/07/16 10:06:32;;;;;;;;;;;;;;;;;;4993797;28;19913;-55
2022/07/16 10:08:58;;;;;;;;;;;;;;;;;;4995163;28;19952;-55
2022/07/16 10:11:24;;;;;;;;;;;;;;;;;;5009574;28;19921;-55
2022/07/16 10:13:50;;;;;;;;;;;;;;;;;;5009025;28;19913;-54
2022/07/16 10:16:16;;;;;;;;;;;;;;;;;;5009550;28;19916;-54
2022/07/16 10:18:42;;;;;;;;;;;;;;;;;;5006560;28;19914;-54
2022/07/16 10:21:08;;;;;;;;;;;;;;;;;;5007998;28;19913;-53
2022/07/16 10:23:34;;;;;;;;;;;;;;;;;;5008122;28;19975;-54
2022/07/16 10:25:59;;;;;;;;;;;;;;;;;;5008619;28;19975;-54
2022/07/16 10:28:25;;;;;;;;;;;;;;;;;;5007946;28;19963;-55
2022/07/16 10:30:52;;;;;;;;;;;;;;;;;;5006289;28;19914;-54
2022/07/16 10:33:18;;;;;;;;;;;;;;;;;;5007227;28;20316;-54
2022/07/16 10:35:44;;;;;;;;;;;;;;;;;;5007510;28;20032;-55
2022/07/16 10:38:11;;;;;;;;;;;;;;;;;;5008200;28;19960;-54
2022/07/16 10:40:37;;;;;;;;;;;;;;;;;;5015291;28;19913;-55
2022/07/16 10:43:03;;;;;;;;;;;;;;;;;;5027211;28;19916;-54
2022/07/16 10:45:29;;;;;;;;;;;;;;;;;;5017889;28;19918;-55
2022/07/16 10:47:55;;;;;;;;;;;;;;;;;;5007484;28;19921;-54
2022/07/16 10:50:21;;;;;;;;;;;;;;;;;;5006755;28;19949;-55
2022/07/16 10:52:47;;;;;;;;;;;;;;;;;;5014936;28;19989;-55
2022/07/16 10:55:13;;;;;;;;;;;;;;;;;;5004743;28;19957;-53
2022/07/16 10:57:43;;;;;;;;;;;;;;;;;;4993931;28;19948;-54
2022/07/16 11:00:09;;;;;;;;;;;;;;;;;;4999603;28;19923;-54
2022/07/16 11:02:35;;;;;;;;;;;;;;;;;;5023880;28;19920;-53
2022/07/16 11:05:01;;;;;;;;;;;;;;;;;;5005913;28;19910;-55
2022/07/16 11:07:27;;;;;;;;;;;;;;;;;;4990130;28;19920;-54
2022/07/16 11:09:52;;;;;;;;;;;;;;;;;;5000244;28;19917;-53
2022/07/16 11:12:18;;;;;;;;;;;;;;;;;;5011290;28;19925;-54
2022/07/16 11:14:44;;;;;;;;;;;;;;;;;;5027712;28;20035;-54
2022/07/16 11:17:10;;;;;;;;;;;;;;;;;;5027992;28;19919;-54
2022/07/16 11:19:36;;;;;;;;;;;;;;;;;;5027894;28;19917;-53
2022/07/16 11:22:02;;;;;;;;;;;;;;;;;;5012266;28;19971;-53
2022/07/16 11:24:28;;;;;;;;;;;;;;;;;;4993497;28;20379;-54
2022/07/16 11:26:54;;;;;;;;;;;;;;;;;;4987562;28;19920;-54
2022/07/16 11:29:20;;;;;;;;;;;;;;;;;;4994396;28;19991;-53
2022/07/16 11:31:46;;;;;;;;;;;;;;;;;;4997393;28;19909;-54
2022/07/16 11:34:12;;;;;;;;;;;;;;;;;;5007239;28;19914;-54
2022/07/16 11:36:38;;;;;;;;;;;;;;;;;;5005249;28;19940;-54
2022/07/16 11:39:04;;;;;;;;;;;;;;;;;;5004487;28;19917;-54
2022/07/16 11:41:30;;;;;;;;;;;;;;;;;;4996563;28;20080;-55
2022/07/16 11:43:56;;;;;;;;;;;;;;;;;;5003183;28;19913;-54
2022/07/16 11:46:23;;;;;;;;;;;;;;;;;;4997213;28;20357;-55
2022/07/16 11:48:49;;;;;;;;;;;;;;;;;;4988100;28;19916;-54
2022/07/16 11:51:15;;;;;;;;;;;;;;;;;;4995078;28;19920;-54
2022/07/16 11:53:41;;;;;;;;;;;;;;;;;;5007468;28;20420;-55
2022/07/16 11:56:08;;;;;;;;;;;;;;;;;;4991851;28;20000;-55
2022/07/16 11:58:34;;;;;;;;;;;;;;;;;;5005895;28;19921;-52
2022/07/16 12:01:00;;;;;;;;;;;;;;;;;;5006610;28;19917;-58
2022/07/16 12:03:26;;;;;;;;;;;;;;;;;;5006082;28;19960;-58
2022/07/16 12:05:52;;;;;;;;;;;;;;;;;;5000741;28;20641;-57
2022/07/16 12:08:18;;;;;;;;;;;;;;;;;;4996561;28;19922;-57
2022/07/16 12:10:44;;;;;;;;;;;;;;;;;;4994904;28;20008;-57
2022/07/16 12:13:10;;;;;;;;;;;;;;;;;;4991922;28;19922;-57
2022/07/16 12:15:36;;;;;;;;;;;;;;;;;;4988844;28;19914;-57
2022/07/16 12:18:02;;;;;;;;;;;;;;;;;;4999399;28;19920;-55
2022/07/16 12:20:28;;;;;;;;;;;;;;;;;;5004772;28;20016;-55
2022/07/16 12:22:54;;;;;;;;;;;;;;;;;;5005783;28;20614;-55
2022/07/16 12:25:20;;;;;;;;;;;;;;;;;;5000787;28;19964;-55
2022/07/16 12:27:47;;;;;;;;;;;;;;;;;;4998706;28;20416;-55
2022/07/16 12:30:13;;;;;;;;;;;;;;;;;;4998774;28;19925;-55
2022/07/16 12:32:39;;;;;;;;;;;;;;;;;;4995578;28;19920;-55
2022/07/16 12:35:05;;;;;;;;;;;;;;;;;;5006493;28;20015;-55
2022/07/16 12:37:31;;;;;;;;;;;;;;;;;;5001934;28;19922;-55
2022/07/16 12:39:57;;;;;;;;;;;;;;;;;;4998543;28;20394;-54
2022/07/16 12:42:23;;;;;;;;;;;;;;;;;;4999162;28;19929;-55
2022/07/16 12:44:49;;;;;;;;;;;;;;;;;;4993315;28;19913;-55
2022/07/16 12:47:15;;;;;;;;;;;;;;;;;;5002444;28;20036;-56
2022/07/16 12:49:41;;;;;;;;;;;;;;;;;;4996866;28;19964;-56
2022/07/16 12:52:07;;;;;;;;;;;;;;;;;;4998944;28;19952;-55
2022/07/16 13:00:10;;;;;;;;;;;;;;;;;;4974542;28;19918;-55
2022/07/16 13:02:37;;;;;;;;;;;;;;;;;;4998856;28;19924;-55
2022/07/16 13:05:02;;;;;;;;;;;;;;;;;;4989584;28;19920;-55
2022/07/16 13:07:29;;;;;;;;;;;;;;;;;;4992010;28;19922;-55
2022/07/16 13:09:55;;;;;;;;;;;;;;;;;;4993553;28;19917;-55
2022/07/16 13:12:21;;;;;;;;;;;;;;;;;;4998842;28;19917;-55
2022/07/16 13:14:47;;;;;;;;;;;;;;;;;;4998816;28;20386;-55
2022/07/16 13:17:13;;;;;;;;;;;;;;;;;;5004729;28;19921;-55
2022/07/16 13:19:39;;;;;;;;;;;;;;;;;;5000800;28;19918;-55
2022/07/16 13:22:05;;;;;;;;;;;;;;;;;;4990386;28;19969;-55
2022/07/16 13:24:31;;;;;;;;;;;;;;;;;;5002559;28;19933;-55
2022/07/16 13:26:57;;;;;;;;;;;;;;;;;;4997357;28;19914;-55
2022/07/16 13:29:23;;;;;;;;;;;;;;;;;;4996248;28;19918;-55
2022/07/16 13:31:49;;;;;;;;;;;;;;;;;;4996325;28;19920;-55
2022/07/16 13:34:16;;;;;;;;;;;;;;;;;;5009632;28;19963;-55
2022/07/16 13:36:42;;;;;;;;;;;;;;;;;;5004078;28;19913;-55
2022/07/16 13:39:08;;;;;;;;;;;;;;;;;;4996675;28;20301;-55
2022/07/16 13:41:34;;;;;;;;;;;;;;;;;;4999714;28;19917;-56
2022/07/16 13:44:00;;;;;;;;;;;;;;;;;;5000387;28;19948;-56
2022/07/16 13:46:26;;;;;;;;;;;;;;;;;;4998082;28;19973;-56
2022/07/16 13:48:52;;;;;;;;;;;;;;;;;;5005224;28;20016;-56
2022/07/16 13:51:18;;;;;;;;;;;;;;;;;;4995456;28;19924;-56
2022/07/16 13:53:43;;;;;;;;;;;;;;;;;;4998776;28;19941;-55
2022/07/16 13:56:09;;;;;;;;;;;;;;;;;;5003238;28;19914;-56
2022/07/16 13:58:36;;;;;;;;;;;;;;;;;;5002592;28;20356;-55
2022/07/16 14:01:03;;;;;;;;;;;;;;;;;;5000057;28;19924;-55
2022/07/16 14:03:29;;;;;;;;;;;;;;;;;;4995186;28;20289;-55
2022/07/16 14:05:55;;;;;;;;;;;;;;;;;;4999874;28;19917;-56
2022/07/16 14:08:21;;;;;;;;;;;;;;;;;;4996344;28;20012;-56
2022/07/16 14:10:47;;;;;;;;;;;;;;;;;;4996662;28;20045;-55
2022/07/16 14:13:13;;;;;;;;;;;;;;;;;;5005300;28;20039;-56
2022/07/16 14:15:38;;;;;;;;;;;;;;;;;;4999954;28;20479;-56
2022/07/16 14:18:04;;;;;;;;;;;;;;;;;;5000042;28;19920;-55
2022/07/16 14:20:30;;;;;;;;;;;;;;;;;;4979010;28;19921;-56
2022/07/16 14:22:56;;;;;;;;;;;;;;;;;;4979568;28;19922;-56
2022/07/16 14:25:22;;;;;;;;;;;;;;;;;;4979410;28;20066;-56
2022/07/16 14:27:48;;;;;;;;;;;;;;;;;;4978287;28;19973;-56
2022/07/16 14:30:14;;;;;;;;;;;;;;;;;;4979840;28;19917;-56
2022/07/16 14:32:40;;;;;;;;;;;;;;;;;;4978712;28;19917;-55
2022/07/16 14:35:08;;;;;;;;;;;;;;;;;;4979239;28;19918;-56
2022/07/16 14:37:34;;;;;;;;;;;;;;;;;;4978352;28;20003;-56
2022/07/16 14:40:00;;;;;;;;;;;;;;;;;;4980373;28;20511;-56
2022/07/16 14:42:27;;;;;;;;;;;;;;;;;;4992759;28;19918;-56
2022/07/16 14:44:53;;;;;;;;;;;;;;;;;;4989704;28;20334;-56
2022/07/16 14:47:19;;;;;;;;;;;;;;;;;;4991346;28;19914;-56
2022/07/16 14:49:44;;;;;;;;;;;;;;;;;;5000551;28;19921;-56
2022/07/16 14:52:10;;;;;;;;;;;;;;;;;;4998868;28;20485;-56
2022/07/16 14:54:36;;;;;;;;;;;;;;;;;;4997901;28;19964;-55
2022/07/16 14:57:02;;;;;;;;;;;;;;;;;;4988568;28;19919;-56
2022/07/16 14:59:29;;;;;;;;;;;;;;;;;;4998780;28;19917;-55
2022/07/16 15:01:56;;;;;;;;;;;;;;;;;;4997722;28;19914;-56
2022/07/16 15:04:22;;;;;;;;;;;;;;;;;;4994482;28;20410;-55
2022/07/16 15:06:49;;;;;;;;;;;;;;;;;;4995421;28;19924;-56
2022/07/16 15:09:16;;;;;;;;;;;;;;;;;;5006752;28;20402;-56
2022/07/16 15:11:42;;;;;;;;;;;;;;;;;;4992283;28;19921;-56
2022/07/16 15:14:07;;;;;;;;;;;;;;;;;;4986928;28;19929;-56
2022/07/16 15:16:33;;;;;;;;;;;;;;;;;;4992759;28;20298;-56
2022/07/16 15:19:00;;;;;;;;;;;;;;;;;;5000171;28;19952;-56
2022/07/16 15:21:26;;;;;;;;;;;;;;;;;;4995168;28;19924;-56
2022/07/16 15:23:52;;;;;;;;;;;;;;;;;;5005704;28;19917;-56
2022/07/16 15:26:18;;;;;;;;;;;;;;;;;;5002286;28;19963;-56
2022/07/16 15:28:44;;;;;;;;;;;;;;;;;;4989799;28;19953;-56
2022/07/16 15:31:11;;;;;;;;;;;;;;;;;;4991552;28;20347;-56
2022/07/16 15:33:37;;;;;;;;;;;;;;;;;;4993008;28;19917;-56
2022/07/16 15:36:03;;;;;;;;;;;;;;;;;;4992004;28;20421;-56
2022/07/16 15:38:29;;;;;;;;;;;;;;;;;;4992503;28;20125;-56
2022/07/16 15:40:56;;;;;;;;;;;;;;;;;;4991276;28;20377;-56
2022/07/16 15:43:22;;;;;;;;;;;;;;;;;;4991549;28;20319;-55
2022/07/16 15:45:49;;;;;;;;;;;;;;;;;;4994308;28;20197;-56
2022/07/16 15:48:16;;;;;;;;;;;;;;;;;;4987494;28;19913;-56
2022/07/16 15:50:42;;;;;;;;;;;;;;;;;;4985757;28;19925;-55
2022/07/16 15:53:08;;;;;;;;;;;;;;;;;;4994002;28;19918;-56
2022/07/16 15:55:35;;;;;;;;;;;;;;;;;;4985359;28;19914;-56
2022/07/16 15:58:02;;;;;;;;;;;;;;;;;;4989803;28;20382;-56
2022/07/16 16:00:29;;;;;;;;;;;;;;;;;;4989913;28;19968;-56
2022/07/16 16:02:56;;;;;;;;;;;;;;;;;;4986022;28;19937;-55
2022/07/16 16:05:22;;;;;;;;;;;;;;;;;;4990886;28;19917;-55
2022/07/16 16:07:48;;;;;;;;;;;;;;;;;;4986481;28;19924;-56
2022/07/16 16:10:14;;;;;;;;;;;;;;;;;;4985839;28;20382;-56
2022/07/16 16:12:43;;;;;;;;;;;;;;;;;;4989657;28;20410;-56
2022/07/16 16:15:09;;;;;;;;;;;;;;;;;;4983629;28;19960;-56
2022/07/16 16:17:35;;;;;;;;;;;;;;;;;;4984575;28;20000;-55
2022/07/16 16:20:01;;;;;;;;;;;;;;;;;;4986743;28;20360;-56
2022/07/16 16:22:27;;;;;;;;;;;;;;;;;;4992040;28;19921;-56
2022/07/16 16:24:53;;;;;;;;;;;;;;;;;;4994876;28;19914;-56
2022/07/16 16:27:20;;;;;;;;;;;;;;;;;;4985408;28;19960;-56
2022/07/16 16:29:46;;;;;;;;;;;;;;;;;;4992392;28;19917;-56
2022/07/16 16:32:12;;;;;;;;;;;;;;;;;;4991252;28;19968;-56
2022/07/16 16:34:37;;;;;;;;;;;;;;;;;;4996612;28;20133;-56
2022/07/16 16:37:03;;;;;;;;;;;;;;;;;;4990257;28;19925;-56
2022/07/16 16:39:31;;;;;;;;;;;;;;;;;;4988898;28;19919;-56
2022/07/16 16:41:57;;;;;;;;;;;;;;;;;;4988826;28;19979;-56
2022/07/16 16:44:23;;;;;;;;;;;;;;;;;;5001770;28;20434;-56
2022/07/16 16:46:49;;;;;;;;;;;;;;;;;;5001584;28;19918;-56
2022/07/16 16:49:16;;;;;;;;;;;;;;;;;;4988906;28;19917;-56
2022/07/16 16:51:43;;;;;;;;;;;;;;;;;;5003962;28;20338;-56
2022/07/16 16:54:09;;;;;;;;;;;;;;;;;;5006666;28;19913;-56
2022/07/16 16:56:35;;;;;;;;;;;;;;;;;;5008199;28;20016;-56